Time;durP1;ratioP1;P1;durP2;ratioP2;P2;SDS_P1;SDS_P2;PMS_P1;PMS_P2;Temp;Humidity;BMP_temperature;BMP_pressure;BME280_temperature;BME280_humidity;BME280_pressure;Samples;Min_cycle;Max_cycle;Signal;HPM_P1;HPM_P2
2022/03/16 00:02:21;;;;;;;32.95;18.20;;;;;;;4.98;75.82;102373.28;5064038;28;20395;-87
2022/03/16 00:04:51;;;;;;;35.53;18.50;;;;;;;4.97;76.14;102371.56;5063258;28;20054;-86
2022/03/16 00:07:18;;;;;;;30.25;17.35;;;;;;;4.92;76.00;102373.25;5083253;28;20030;-86
2022/03/16 00:09:45;;;;;;;37.88;19.00;;;;;;;4.84;76.73;102374.06;5082950;28;20372;-86
2022/03/16 00:12:11;;;;;;;38.17;18.73;;;;;;;4.83;76.44;102369.69;5063538;28;20365;-87
2022/03/16 00:14:37;;;;;;;33.50;18.50;;;;;;;4.80;76.33;102361.84;5082524;28;20483;-87
2022/03/16 00:17:04;;;;;;;27.88;16.33;;;;;;;4.81;76.09;102367.94;5064446;28;20019;-86
2022/03/16 00:19:30;;;;;;;29.50;15.25;;;;;;;4.79;75.59;102367.91;5082248;28;20039;-86
2022/03/16 00:21:57;;;;;;;30.55;16.77;;;;;;;4.70;75.74;102372.19;5063129;28;20057;-86
2022/03/16 00:24:22;;;;;;;32.08;17.80;;;;;;;4.65;75.81;102371.28;5096229;28;20028;-87
2022/03/16 00:26:47;;;;;;;32.85;17.90;;;;;;;4.63;75.99;102371.28;5062754;28;20039;-86
2022/03/16 00:29:13;;;;;;;32.38;17.05;;;;;;;4.61;75.74;102378.22;5082961;28;20403;-86
2022/03/16 00:31:38;;;;;;;38.55;19.20;;;;;;;4.63;77.67;102373.91;5082868;28;20036;-86
2022/03/16 00:34:03;;;;;;;35.90;19.15;;;;;;;4.78;77.95;102366.16;5082300;28;20028;-86
2022/03/16 00:36:29;;;;;;;29.67;17.15;;;;;;;4.83;76.45;102366.19;5064636;28;20385;-86
2022/03/16 00:38:54;;;;;;;31.00;16.92;;;;;;;4.74;75.09;102367.00;5074071;28;20139;-87
2022/03/16 00:41:20;;;;;;;33.35;16.95;;;;;;;4.60;76.11;102374.72;5044676;28;20112;-86
2022/03/16 00:43:45;;;;;;;33.55;17.58;;;;;;;4.53;75.67;102369.44;5063692;28;20060;-85
2022/03/16 00:46:11;;;;;;;32.67;17.25;;;;;;;4.49;76.02;102371.16;5043205;28;20142;-87
2022/03/16 00:48:36;;;;;;;34.78;18.88;;;;;;;4.47;77.07;102372.84;5045370;28;20562;-85
2022/03/16 00:51:02;;;;;;;32.53;18.63;;;;;;;4.51;76.05;102379.00;5044746;28;20387;-87
2022/03/16 00:53:27;;;;;;;29.95;17.55;;;;;;;4.42;76.41;102373.69;5061887;28;20032;-85
2022/03/16 00:55:52;;;;;;;32.97;17.08;;;;;;;4.41;75.96;102371.94;5044623;28;20027;-87
2022/03/16 00:58:19;;;;;;;31.10;17.50;;;;;;;4.40;77.14;102365.81;5043267;28;20436;-87
2022/03/16 01:00:44;;;;;;;30.02;16.10;;;;;;;4.47;77.86;102365.00;5044021;28;20028;-87
2022/03/16 01:03:11;;;;;;;30.55;17.05;;;;;;;4.51;77.55;102360.69;5062735;28;20038;-85
2022/03/16 01:05:37;;;;;;;30.70;17.58;;;;;;;4.51;75.96;102372.03;5061551;28;20021;-87
2022/03/16 01:08:02;;;;;;;32.95;18.48;;;;;;;4.43;76.33;102368.47;5043302;28;20442;-86
2022/03/16 01:10:27;;;;;;;33.38;18.38;;;;;;;4.37;76.94;102365.78;5044706;28;20036;-87
2022/03/16 01:12:55;;;;;;;34.65;19.90;;;;;;;4.44;77.88;102357.13;5060453;28;20036;-86
2022/03/16 01:15:23;;;;;;;38.83;21.38;;;;;;;4.53;77.18;102358.97;5062786;28;20082;-87
2022/03/16 01:17:51;;;;;;;38.03;21.05;;;;;;;4.52;77.17;102346.72;5061391;28;20103;-86
2022/03/16 01:20:21;;;;;;;38.53;20.55;;;;;;;4.49;77.55;102347.59;5058478;28;20468;-87
2022/03/16 01:22:46;;;;;;;38.38;20.67;;;;;;;4.40;76.99;102349.25;5061002;28;20038;-87
2022/03/16 01:25:12;;;;;;;39.90;20.10;;;;;;;4.38;76.07;102351.81;5043468;28;20032;-87
2022/03/16 01:27:37;;;;;;;41.72;21.42;;;;;;;4.33;77.47;102345.66;5060294;28;20035;-86
2022/03/16 01:30:04;;;;;;;41.25;21.58;;;;;;;4.37;76.91;102351.81;5044283;28;20036;-88
2022/03/16 01:32:29;;;;;;;37.33;20.23;;;;;;;4.39;76.92;102350.97;5061506;28;20029;-85
2022/03/16 01:34:54;;;;;;;37.50;19.42;;;;;;;4.32;76.36;102350.03;5047314;28;20039;-87
2022/03/16 01:37:19;;;;;;;40.72;22.35;;;;;;;4.36;78.59;102348.31;5065811;28;20580;-86
2022/03/16 01:39:45;;;;;;;40.58;22.50;;;;;;;4.52;79.30;102344.09;5046093;28;20044;-87
2022/03/16 01:42:10;;;;;;;41.58;21.70;;;;;;;4.63;78.62;102342.47;5047759;28;20437;-85
2022/03/16 01:44:46;;;;;;;43.05;21.88;;;;;;;4.65;78.65;102348.59;5047319;28;20031;-87
2022/03/16 01:47:13;;;;;;;36.78;21.23;;;;;;;4.56;77.07;102324.94;5064876;28;20036;-86
2022/03/16 01:49:38;;;;;;;44.88;22.58;;;;;;;4.60;78.97;102331.94;5047997;28;20503;-86
2022/03/16 01:52:04;;;;;;;40.22;22.42;;;;;;;4.68;79.24;102339.88;5064841;28;20028;-86
2022/03/16 01:54:30;;;;;;;41.20;22.25;;;;;;;4.75;79.09;102328.56;5065835;28;20033;-86
2022/03/16 01:56:56;;;;;;;36.75;20.10;;;;;;;4.80;78.43;102329.47;5047441;28;20043;-88
2022/03/16 01:59:21;;;;;;;35.45;19.48;;;;;;;4.80;78.72;102325.16;5044925;28;20411;-86
2022/03/16 02:01:46;;;;;;;36.28;21.13;;;;;;;4.78;78.49;102324.25;5047708;28;20067;-87
2022/03/16 02:04:11;;;;;;;41.00;21.33;;;;;;;4.79;78.27;102315.50;5047631;28;20031;-85
2022/03/16 02:06:37;;;;;;;39.30;21.48;;;;;;;4.83;78.88;102317.28;5046224;28;20036;-87
2022/03/16 02:09:02;;;;;;;36.10;20.58;;;;;;;4.78;77.66;102312.88;5046547;28;20365;-87
2022/03/16 02:11:28;;;;;;;31.95;19.50;;;;;;;4.70;76.29;102314.56;5063555;28;20040;-88
2022/03/16 02:13:53;;;;;;;35.88;20.73;;;;;;;4.58;78.71;102300.53;5063451;28;20031;-87
2022/03/16 02:16:19;;;;;;;40.33;23.00;;;;;;;4.71;79.55;102297.97;5045862;28;20083;-87
2022/03/16 02:18:44;;;;;;;41.53;21.95;;;;;;;4.72;79.22;102302.38;5046254;28;20089;-87
2022/03/16 02:21:12;;;;;;;36.53;20.83;;;;;;;4.71;78.94;102309.34;5063799;28;20021;-87
2022/03/16 02:23:37;;;;;;;35.92;20.48;;;;;;;4.73;78.94;102296.25;5065015;28;20024;-85
2022/03/16 02:26:03;;;;;;;40.55;22.45;;;;;;;4.75;79.33;102297.13;5064073;28;21594;-87
2022/03/16 02:28:28;;;;;;;35.58;20.55;;;;;;;4.76;79.13;102293.69;5044731;28;20093;-87
2022/03/16 02:30:54;;;;;;;32.03;18.73;;;;;;;4.66;78.49;102283.97;5065083;28;20040;-87
2022/03/16 02:33:19;;;;;;;32.78;18.73;;;;;;;4.65;79.01;102303.19;5045840;28;20713;-87
2022/03/16 02:35:46;;;;;;;35.65;20.13;;;;;;;4.57;78.54;102300.53;5063588;28;20031;-86
2022/03/16 02:38:12;;;;;;;37.50;20.50;;;;;;;4.51;78.53;102303.06;5046653;28;20242;-87
2022/03/16 02:40:38;;;;;;;32.80;19.58;;;;;;;4.38;77.89;102301.19;5062763;28;20040;-86
2022/03/16 02:43:03;;;;;;;30.95;18.15;;;;;;;4.37;78.55;102308.19;5045850;28;20402;-86
2022/03/16 02:45:28;;;;;;;31.02;18.23;;;;;;;4.37;78.87;102294.22;5062127;28;20497;-86
2022/03/16 02:47:54;;;;;;;29.48;18.67;;;;;;;4.38;78.12;102302.06;5061901;28;20028;-87
2022/03/16 02:50:19;;;;;;;32.95;19.05;;;;;;;4.32;78.25;102302.03;5064875;28;20062;-86
2022/03/16 02:52:45;;;;;;;30.40;18.88;;;;;;;4.31;78.61;102301.16;5063507;28;20039;-86
2022/03/16 02:55:10;;;;;;;29.50;18.70;;;;;;;4.28;78.64;102302.84;5048626;28;20055;-86
2022/03/16 02:57:37;;;;;;;34.58;19.15;;;;;;;4.30;78.39;102302.03;5046090;28;20028;-87
2022/03/16 03:00:08;;;;;;;33.47;19.67;;;;;;;4.26;78.88;102301.97;5046004;28;20115;-86
2022/03/16 03:02:33;;;;;;;32.95;18.25;;;;;;;4.20;78.40;102301.94;5046033;28;20036;-86
2022/03/16 03:04:59;;;;;;;33.80;20.35;;;;;;;4.26;79.68;102299.38;5063431;28;20021;-87
2022/03/16 03:07:24;;;;;;;33.88;20.05;;;;;;;4.28;79.76;102281.91;5045753;28;20089;-85
2022/03/16 03:09:49;;;;;;;37.15;19.98;;;;;;;4.30;79.79;102278.47;5063104;28;20033;-87
2022/03/16 03:12:15;;;;;;;33.72;19.70;;;;;;;4.33;79.81;102285.44;5044187;28;20032;-88
2022/03/16 03:14:41;;;;;;;34.40;20.42;;;;;;;4.36;79.93;102285.50;5062600;28;20022;-88
2022/03/16 03:17:06;;;;;;;34.67;19.48;;;;;;;4.29;79.25;102278.44;5044820;28;20089;-87
2022/03/16 03:19:32;;;;;;;33.28;20.23;;;;;;;4.26;79.23;102281.03;5044145;28;20109;-87
2022/03/16 03:21:57;;;;;;;33.75;20.20;;;;;;;4.28;79.62;102279.28;5063413;28;20059;-86
2022/03/16 03:24:23;;;;;;;29.92;18.50;;;;;;;4.30;79.51;102288.06;5062836;28;20400;-87
2022/03/16 03:26:48;;;;;;;35.22;20.20;;;;;;;4.33;79.54;102296.78;5061937;28;20121;-87
2022/03/16 03:29:14;;;;;;;34.20;19.50;;;;;;;4.38;79.90;102301.19;5044395;28;20024;-87
2022/03/16 03:31:40;;;;;;;34.78;20.17;;;;;;;4.34;79.49;102297.69;5063048;28;20123;-87
2022/03/16 03:34:05;;;;;;;33.08;19.27;;;;;;;4.35;79.11;102297.72;5063577;28;20052;-86
2022/03/16 03:36:31;;;;;;;39.17;20.42;;;;;;;4.34;79.48;102293.34;5065163;28;20048;-87
2022/03/16 03:38:57;;;;;;;35.33;20.15;;;;;;;4.32;79.62;102295.06;5063140;28;20049;-87
2022/03/16 03:41:22;;;;;;;32.25;18.83;;;;;;;4.29;78.83;102287.19;5062187;28;20052;-86
2022/03/16 03:43:47;;;;;;;31.83;19.60;;;;;;;4.27;79.17;102294.13;5064741;28;20491;-87
2022/03/16 03:46:13;;;;;;;35.47;19.95;;;;;;;4.26;79.54;102297.63;5044386;28;20038;-87
2022/03/16 03:48:38;;;;;;;41.92;21.38;;;;;;;4.27;79.94;102303.72;5062970;28;20036;-85
2022/03/16 03:51:03;;;;;;;31.15;17.88;;;;;;;4.25;79.49;102290.63;5044321;28;20028;-88
2022/03/16 03:53:29;;;;;;;35.00;20.45;;;;;;;4.31;79.71;102301.16;5045793;28;20032;-86
2022/03/16 03:55:54;;;;;;;32.10;19.15;;;;;;;4.26;79.20;102295.00;5062779;28;20112;-86
2022/03/16 03:58:19;;;;;;;35.10;21.38;;;;;;;4.24;79.69;102293.22;5061304;28;20495;-87
2022/03/16 04:00:45;;;;;;;34.80;20.50;;;;;;;4.28;80.19;102289.78;5044294;28;20020;-86
2022/03/16 04:03:10;;;;;;;37.17;22.15;;;;;;;4.28;80.26;102295.88;5044960;28;20499;-86
2022/03/16 04:05:35;;;;;;;37.40;21.15;;;;;;;4.31;79.72;102295.91;5062187;28;20044;-87
2022/03/16 04:08:01;;;;;;;33.83;19.85;;;;;;;4.30;79.06;102293.31;5043985;28;20039;-87
2022/03/16 04:10:26;;;;;;;39.83;19.95;;;;;;;4.30;79.55;102295.91;5062398;28;20027;-87
2022/03/16 04:12:51;;;;;;;35.45;20.17;;;;;;;4.28;79.68;102287.16;5062707;28;20030;-87
2022/03/16 04:15:20;;;;;;;37.75;21.27;;;;;;;4.30;80.19;102288.06;5043318;28;20016;-87
2022/03/16 04:17:45;;;;;;;40.13;22.48;;;;;;;4.38;80.73;102293.34;5063692;28;20418;-87
2022/03/16 04:20:11;;;;;;;38.60;22.77;;;;;;;4.39;80.45;102293.38;5044872;28;20029;-87
2022/03/16 04:22:36;;;;;;;35.83;21.80;;;;;;;4.38;80.12;102281.13;5062873;28;20446;-87
2022/03/16 04:25:03;;;;;;;42.85;23.63;;;;;;;4.42;80.11;102292.50;5043358;28;20039;-86
2022/03/16 04:27:29;;;;;;;39.38;22.02;;;;;;;4.40;80.26;102279.41;5063225;28;20272;-87
2022/03/16 04:29:55;;;;;;;37.83;22.67;;;;;;;4.48;80.78;102288.22;5060753;28;20442;-86
2022/03/16 04:32:20;;;;;;;42.95;23.27;;;;;;;4.50;80.63;102291.72;5063047;28;20046;-86
2022/03/16 04:34:45;;;;;;;39.58;23.80;;;;;;;4.51;81.03;102284.72;5044078;28;20380;-87
2022/03/16 04:37:11;;;;;;;39.20;23.60;;;;;;;4.55;80.77;102289.13;5043653;28;20082;-87
2022/03/16 04:39:36;;;;;;;41.53;25.38;;;;;;;4.57;80.89;102290.03;5047301;28;20048;-87
2022/03/16 04:42:02;;;;;;;39.88;23.27;;;;;;;4.56;80.52;102280.41;5057272;28;20040;-88
2022/03/16 04:44:27;;;;;;;37.05;22.38;;;;;;;4.57;80.38;102282.19;5056641;28;20369;-87
2022/03/16 04:46:52;;;;;;;38.30;22.10;;;;;;;4.56;80.67;102280.41;5062244;28;20050;-87
2022/03/16 04:49:17;;;;;;;40.20;22.02;;;;;;;4.55;80.51;102281.28;5061643;28;20029;-86
2022/03/16 04:51:43;;;;;;;43.00;23.65;;;;;;;4.58;80.94;102278.69;5058394;28;20111;-87
2022/03/16 04:54:08;;;;;;;36.97;23.55;;;;;;;4.58;80.69;102268.22;5058004;28;20472;-86
2022/03/16 04:56:36;;;;;;;41.60;23.67;;;;;;;4.65;80.79;102275.25;5088744;28;20048;-87
2022/03/16 04:59:03;;;;;;;38.80;23.33;;;;;;;4.63;81.09;102266.50;5057384;28;20032;-88
2022/03/16 05:01:28;;;;;;;40.15;22.83;;;;;;;4.67;81.64;102267.41;5061312;28;20535;-85
2022/03/16 05:03:53;;;;;;;39.42;25.30;;;;;;;4.69;81.32;102268.28;5061783;28;20033;-87
2022/03/16 05:06:19;;;;;;;42.25;23.95;;;;;;;4.69;80.82;102268.28;5053754;28;20024;-86
2022/03/16 05:08:47;;;;;;;42.28;21.92;;;;;;;4.63;81.08;102270.88;5058183;28;20037;-86
2022/03/16 05:11:13;;;;;;;37.63;22.73;;;;;;;4.60;81.28;102283.06;5062466;28;20031;-87
2022/03/16 05:13:38;;;;;;;41.53;24.25;;;;;;;4.53;81.30;102283.03;5061374;28;20271;-85
2022/03/16 05:16:06;;;;;;;43.97;24.48;;;;;;;4.54;80.93;102283.03;5062116;28;20024;-85
2022/03/16 05:18:31;;;;;;;39.88;22.35;;;;;;;4.51;81.32;102276.88;5087149;28;20037;-87
2022/03/16 05:20:56;;;;;;;40.83;23.92;;;;;;;4.51;81.10;102282.13;5051826;28;20373;-87
2022/03/16 05:23:22;;;;;;;39.15;22.58;;;;;;;4.56;81.01;102280.41;5061275;28;20036;-87
2022/03/16 05:25:47;;;;;;;36.97;22.55;;;;;;;4.52;80.72;102286.47;5058575;28;20463;-87
2022/03/16 05:28:12;;;;;;;37.28;23.30;;;;;;;4.41;80.57;102281.16;5089912;28;20519;-87
2022/03/16 05:30:38;;;;;;;43.97;22.42;;;;;;;4.44;81.34;102278.59;5060791;28;20028;-86
2022/03/16 05:33:03;;;;;;;40.70;22.73;;;;;;;4.45;81.05;102275.09;5053713;28;20063;-86
2022/03/16 05:35:29;;;;;;;40.47;22.52;;;;;;;4.49;81.10;102276.00;5061980;28;20020;-86
2022/03/16 05:37:55;;;;;;;34.03;20.48;;;;;;;4.47;80.90;102260.25;5055848;28;20523;-86
2022/03/16 05:40:21;;;;;;;34.65;19.88;;;;;;;4.52;81.10;102266.44;5062791;28;20048;-87
2022/03/16 05:42:46;;;;;;;36.78;21.52;;;;;;;4.50;81.12;102257.66;5082099;28;20138;-85
2022/03/16 05:45:12;;;;;;;38.67;21.05;;;;;;;4.50;81.03;102260.28;5082353;28;20043;-87
2022/03/16 05:47:37;;;;;;;34.55;19.98;;;;;;;4.52;81.17;102260.28;5081812;28;20081;-87
2022/03/16 05:50:04;;;;;;;37.33;21.40;;;;;;;4.59;80.99;102260.34;5063392;28;20466;-86
2022/03/16 05:52:31;;;;;;;33.83;19.92;;;;;;;4.57;81.15;102258.63;5065059;28;20469;-86
2022/03/16 05:54:58;;;;;;;34.15;19.83;;;;;;;4.63;81.16;102265.63;5081392;28;20039;-87
2022/03/16 05:57:23;;;;;;;32.38;19.73;;;;;;;4.68;81.13;102266.53;5081681;28;20117;-87
2022/03/16 05:59:49;;;;;;;34.85;18.80;;;;;;;4.60;80.96;102250.75;5063917;28;20482;-86
2022/03/16 06:02:14;;;;;;;33.08;18.45;;;;;;;4.69;80.63;102268.28;5081424;28;20035;-87
2022/03/16 06:04:41;;;;;;;31.42;18.75;;;;;;;4.72;80.70;102270.94;5063686;28;20032;-86
2022/03/16 06:07:07;;;;;;;35.17;18.90;;;;;;;4.78;80.63;102274.47;5081118;28;20506;-86
2022/03/16 06:09:33;;;;;;;36.70;19.20;;;;;;;4.81;80.74;102277.13;5062897;28;20016;-86
2022/03/16 06:11:59;;;;;;;26.50;16.27;;;;;;;4.84;80.44;102273.63;5081564;28;20032;-87
2022/03/16 06:14:25;;;;;;;31.27;18.50;;;;;;;4.83;81.12;102279.72;5080704;28;20402;-87
2022/03/16 06:16:52;;;;;;;28.10;15.65;;;;;;;4.94;80.45;102279.78;5063772;28;20036;-86
2022/03/16 06:19:18;;;;;;;25.70;16.27;;;;;;;4.98;80.38;102281.56;5081453;28;20053;-86
2022/03/16 06:21:43;;;;;;;27.17;14.63;;;;;;;5.00;80.11;102283.34;5085040;28;20491;-86
2022/03/16 06:24:09;;;;;;;27.52;16.15;;;;;;;5.03;80.18;102288.59;5085692;28;20056;-85
2022/03/16 06:26:34;;;;;;;26.10;14.48;;;;;;;5.11;80.16;102297.38;5083633;28;20031;-84
2022/03/16 06:28:59;;;;;;;28.60;16.15;;;;;;;5.11;80.51;102297.38;5084132;28;20024;-87
2022/03/16 06:31:24;;;;;;;27.40;16.25;;;;;;;5.21;80.11;102298.31;5065965;28;20032;-86
2022/03/16 06:33:50;;;;;;;29.10;15.88;;;;;;;5.20;80.19;102299.19;5066241;28;20421;-87
2022/03/16 06:36:15;;;;;;;25.25;14.68;;;;;;;5.25;79.96;102293.97;5067389;28;20031;-85
2022/03/16 06:38:40;;;;;;;26.77;15.65;;;;;;;5.30;79.91;102292.22;5084335;28;20653;-86
2022/03/16 06:41:06;;;;;;;26.75;16.33;;;;;;;5.33;79.57;102289.63;5065912;28;20020;-86
2022/03/16 06:43:31;;;;;;;23.55;13.23;;;;;;;5.41;79.43;102298.44;5065636;28;20028;-86
2022/03/16 06:45:57;;;;;;;24.90;14.73;;;;;;;5.45;79.53;102297.53;5066362;28;20061;-86
2022/03/16 06:48:23;;;;;;;27.63;15.00;;;;;;;5.47;79.46;102290.56;5085229;28;20020;-87
2022/03/16 06:50:50;;;;;;;28.75;15.60;;;;;;;5.53;79.43;102290.59;5083340;28;20020;-86
2022/03/16 06:53:15;;;;;;;23.80;14.75;;;;;;;5.63;79.12;102296.75;5066003;28;20077;-87
2022/03/16 06:55:41;;;;;;;27.17;13.98;;;;;;;5.65;79.07;102283.66;5084953;28;20040;-87
2022/03/16 06:58:06;;;;;;;24.75;14.48;;;;;;;5.73;78.96;102284.53;5064630;28;20024;-86
2022/03/16 07:00:32;;;;;;;26.60;15.38;;;;;;;5.82;79.08;102267.06;5083928;28;20093;-87
2022/03/16 07:03:02;;;;;;;26.88;15.40;;;;;;;5.95;78.80;102272.38;5084069;28;20030;-86
2022/03/16 07:05:28;;;;;;;23.45;12.45;;;;;;;6.01;78.65;102262.75;5084486;28;20118;-87
2022/03/16 07:07:58;;;;;;;24.73;13.88;;;;;;;6.08;78.53;102267.16;5082891;28;20579;-86
2022/03/16 07:10:24;;;;;;;25.83;14.02;;;;;;;6.13;78.40;102260.16;5065551;28;20484;-86
2022/03/16 07:12:50;;;;;;;24.38;13.15;;;;;;;6.23;77.80;102262.78;5062981;28;20024;-87
2022/03/16 07:15:15;;;;;;;24.10;13.77;;;;;;;6.30;78.02;102254.06;5082765;28;20030;-87
2022/03/16 07:17:41;;;;;;;24.75;13.82;;;;;;;6.42;77.38;102259.28;5082256;28;20035;-86
2022/03/16 07:20:07;;;;;;;24.40;13.27;;;;;;;6.57;77.23;102263.66;5082543;28;20383;-87
2022/03/16 07:22:34;;;;;;;24.00;12.90;;;;;;;6.69;77.34;102257.53;5065640;28;20028;-87
2022/03/16 07:25:00;;;;;;;27.08;14.13;;;;;;;6.79;77.01;102256.63;5083950;28;20472;-87
2022/03/16 07:27:26;;;;;;;22.73;14.13;;;;;;;6.91;75.99;102251.34;5084451;28;20028;-87
2022/03/16 07:29:51;;;;;;;22.02;13.07;;;;;;;7.02;75.72;102241.66;5083773;28;20110;-88
2022/03/16 07:32:16;;;;;;;20.83;12.88;;;;;;;7.18;75.79;102252.13;5080580;28;20063;-86
2022/03/16 07:34:43;;;;;;;19.95;11.60;;;;;;;7.32;74.94;102242.44;5064819;28;20107;-87
2022/03/16 07:37:08;;;;;;;20.90;11.55;;;;;;;7.44;74.93;102241.53;5081935;28;20012;-86
2022/03/16 07:39:34;;;;;;;18.90;10.95;;;;;;;7.60;74.78;102241.44;5070758;28;20045;-88
2022/03/16 07:41:59;;;;;;;25.58;13.25;;;;;;;7.74;75.10;102237.84;5062971;28;20528;-87
2022/03/16 07:44:24;;;;;;;18.23;10.45;;;;;;;7.84;73.76;102244.81;5044868;28;20102;-87
2022/03/16 07:46:50;;;;;;;19.30;10.32;;;;;;;7.93;73.05;102239.50;5063295;28;20735;-86
2022/03/16 07:49:15;;;;;;;19.67;11.60;;;;;;;8.05;73.44;102233.25;5044186;28;20392;-86
2022/03/16 07:51:40;;;;;;;18.65;11.80;;;;;;;8.19;71.96;102231.38;5044805;28;20037;-85
2022/03/16 07:54:06;;;;;;;18.70;10.90;;;;;;;8.35;71.55;102230.38;5062828;28;20027;-86
2022/03/16 07:56:31;;;;;;;21.27;12.90;;;;;;;8.43;72.22;102231.19;5062772;28;20033;-87
2022/03/16 07:58:58;;;;;;;18.25;12.25;;;;;;;8.57;71.36;102232.84;5044423;28;20027;-86
2022/03/16 08:01:24;;;;;;;18.73;11.85;;;;;;;8.69;70.25;102238.88;5060940;28;20032;-86
2022/03/16 08:03:49;;;;;;;16.75;10.60;;;;;;;8.78;69.51;102226.50;5061054;28;20036;-85
2022/03/16 08:06:15;;;;;;;19.65;11.02;;;;;;;8.90;68.88;102244.81;5045303;28;20032;-87
2022/03/16 08:08:40;;;;;;;16.33;10.60;;;;;;;9.06;68.29;102237.63;5062958;28;20051;-87
2022/03/16 08:11:07;;;;;;;18.13;11.65;;;;;;;9.23;68.68;102248.81;5043826;28;20039;-85
2022/03/16 08:13:34;;;;;;;23.55;11.25;;;;;;;9.44;67.86;102245.94;5059565;28;20115;-87
2022/03/16 08:15:59;;;;;;;18.27;11.57;;;;;;;9.63;67.77;102240.41;5058945;28;20495;-86
2022/03/16 08:18:24;;;;;;;18.33;10.27;;;;;;;9.88;66.58;102246.19;5042584;28;20024;-87
2022/03/16 08:20:50;;;;;;;14.70;8.80;;;;;;;10.02;65.02;102232.78;5044363;28;20599;-87
2022/03/16 08:23:15;;;;;;;19.17;10.27;;;;;;;9.89;64.65;102240.03;5060506;28;20028;-86
2022/03/16 08:25:41;;;;;;;15.98;9.85;;;;;;;9.92;65.21;102240.84;5044073;28;20160;-87
2022/03/16 08:28:06;;;;;;;16.42;10.50;;;;;;;10.10;65.66;102238.84;5044412;28;20062;-88
2022/03/16 08:30:34;;;;;;;14.48;9.48;;;;;;;10.23;64.18;102241.25;5044940;28;20188;-87
2022/03/16 08:32:59;;;;;;;15.88;10.25;;;;;;;10.47;63.22;102233.84;5044513;28;20111;-87
2022/03/16 08:35:25;;;;;;;14.38;10.32;;;;;;;10.83;63.18;102216.44;5061120;28;20119;-87
2022/03/16 08:37:50;;;;;;;15.30;9.70;;;;;;;11.06;61.50;102231.00;5043401;28;20032;-87
2022/03/16 08:40:16;;;;;;;17.67;9.85;;;;;;;11.32;60.07;102217.22;5043575;28;20095;-87
2022/03/16 08:42:42;;;;;;;16.98;10.05;;;;;;;11.69;60.23;102242.00;5062806;28;20552;-87
2022/03/16 08:45:08;;;;;;;22.63;9.65;;;;;;;12.03;58.09;102235.97;5062734;28;20032;-86
2022/03/16 08:47:33;;;;;;;16.48;10.75;;;;;;;12.10;58.80;102231.38;5062252;28;20118;-87
2022/03/16 08:49:59;;;;;;;21.35;10.45;;;;;;;12.25;57.10;102239.81;5043312;28;20028;-86
2022/03/16 08:52:24;;;;;;;16.48;10.63;;;;;;;12.51;56.99;102240.94;5061557;28;20535;-88
2022/03/16 08:54:50;;;;;;;18.60;12.48;;;;;;;12.41;57.04;102239.44;5063892;28;20111;-86
2022/03/16 08:57:16;;;;;;;16.00;10.48;;;;;;;12.62;55.91;102228.25;5043385;28;20514;-89
2022/03/16 08:59:41;;;;;;;14.52;9.35;;;;;;;12.83;55.31;102234.78;5045010;28;20421;-88
2022/03/16 09:02:07;;;;;;;16.92;9.30;;;;;;;13.03;54.00;102237.75;5061196;28;20510;-89
2022/03/16 09:04:34;;;;;;;15.63;10.68;;;;;;;13.11;54.52;102226.06;5075784;28;20024;-88
2022/03/16 09:07:00;;;;;;;16.15;10.35;;;;;;;13.51;53.50;102241.72;5041843;28;20020;-88
2022/03/16 09:09:25;;;;;;;14.15;10.10;;;;;;;13.85;52.49;102235.38;5061805;28;20044;-87
2022/03/16 09:11:51;;;;;;;13.85;10.32;;;;;;;13.72;51.63;102246.41;5044526;28;20504;-89
2022/03/16 09:14:16;;;;;;;16.75;11.23;;;;;;;13.72;52.27;102246.41;5044128;28;20024;-87
2022/03/16 09:16:44;;;;;;;14.20;10.15;;;;;;;14.06;50.75;102245.31;5062941;28;20077;-88
2022/03/16 09:19:10;;;;;;;16.05;10.45;;;;;;;14.18;50.09;102250.25;5042199;28;20035;-88
2022/03/16 09:21:35;;;;;;;15.65;9.73;;;;;;;14.60;50.26;102231.16;5061609;28;20067;-88
2022/03/16 09:24:00;;;;;;;15.65;10.55;;;;;;;14.72;49.26;102232.50;5045520;28;20040;-89
2022/03/16 09:26:27;;;;;;;13.90;9.60;;;;;;;15.03;48.72;102227.81;5045458;28;20506;-89
2022/03/16 09:28:52;;;;;;;17.30;11.25;;;;;;;14.79;48.39;102234.91;5061990;28;20436;-88
2022/03/16 09:31:20;;;;;;;15.60;10.43;;;;;;;15.39;47.19;102237.13;5062122;28;20111;-86
2022/03/16 09:33:46;;;;;;;14.57;9.60;;;;;;;15.82;46.65;102234.59;5061181;28;20036;-88
2022/03/16 09:36:11;;;;;;;16.88;11.55;;;;;;;15.80;46.41;102235.56;5060570;28;20029;-88
2022/03/16 09:38:37;;;;;;;18.05;10.57;;;;;;;16.59;44.97;102226.06;5062153;28;20078;-88
2022/03/16 09:41:03;;;;;;;17.85;11.57;;;;;;;17.59;43.38;102226.00;5044873;28;20464;-88
2022/03/16 09:43:33;;;;;;;17.42;11.65;;;;;;;16.88;43.57;102235.53;5063239;28;20031;-87
2022/03/16 09:46:04;;;;;;;17.80;11.38;;;;;;;16.98;44.36;102236.84;5043107;28;20040;-86
2022/03/16 09:48:32;;;;;;;14.37;9.93;;;;;;;16.88;43.00;102226.63;5041914;28;20372;-87
2022/03/16 09:50:58;;;;;;;16.80;11.15;;;;;;;16.81;46.96;102223.38;5042411;28;20263;-89
2022/03/16 09:53:28;;;;;;;13.07;10.05;;;;;;;16.67;44.09;102233.75;5044325;28;20082;-89
2022/03/16 09:55:55;;;;;;;17.65;10.60;;;;;;;17.02;44.40;102219.75;5047517;28;20499;-90
2022/03/16 10:22:04;;;;;;;14.55;10.30;;;;;;;21.61;35.31;102202.59;5063633;28;20124;-88
2022/03/16 10:24:29;;;;;;;15.77;10.48;;;;;;;21.37;34.48;102210.44;5065822;28;20499;-89
2022/03/16 10:26:58;;;;;;;13.90;10.38;;;;;;;21.77;34.00;102210.53;5063825;28;20114;-89
2022/03/16 10:29:26;;;;;;;13.20;10.48;;;;;;;20.28;35.24;102218.00;5058884;28;20028;-87
2022/03/16 10:32:05;;;;;;;15.82;10.70;;;;;;;19.62;38.05;102203.91;5060432;28;20028;-88
2022/03/16 10:34:33;;;;;;;14.38;10.13;;;;;;;19.79;36.83;102210.13;5063124;28;20068;-87
2022/03/16 10:36:59;;;;;;;15.43;11.43;;;;;;;19.80;36.65;102204.69;5064736;28;20064;-89
2022/03/16 10:39:33;;;;;;;22.70;10.80;;;;;;;19.63;37.55;102204.75;5052440;28;20054;-88
2022/03/16 10:48:14;;;;;;;14.30;9.35;;;;;;;22.36;34.51;102189.53;5063391;28;20109;-88
2022/03/16 10:50:40;;;;;;;13.57;9.68;;;;;;;22.47;34.06;102196.88;5064529;28;20020;-89
2022/03/16 10:53:05;;;;;;;12.50;10.00;;;;;;;22.18;32.95;102185.41;5064458;28;20091;-89
2022/03/16 10:55:31;;;;;;;14.00;10.70;;;;;;;22.21;32.92;102182.53;5062960;28;20051;-89
2022/03/16 10:57:57;;;;;;;11.20;9.85;;;;;;;22.15;33.61;102186.50;5061650;28;20055;-87
2022/03/16 11:00:27;;;;;;;14.93;10.30;;;;;;;21.80;34.55;102169.97;5063509;28;20326;-88
2022/03/16 11:02:54;;;;;;;14.30;10.43;;;;;;;21.52;35.01;102176.28;5063051;28;20484;-86
2022/03/16 11:05:20;;;;;;;15.27;10.88;;;;;;;21.83;34.98;102183.22;5062018;28;20109;-87
2022/03/16 11:07:49;;;;;;;15.88;11.52;;;;;;;21.82;35.72;102172.53;5061388;28;20288;-87
2022/03/16 11:10:16;;;;;;;12.75;9.57;;;;;;;21.57;35.62;102181.38;5065250;28;20103;-86
2022/03/16 11:15:26;;;;;;;15.15;10.57;;;;;;;20.55;35.93;102161.81;5065027;28;20066;-88
2022/03/16 11:17:51;;;;;;;17.80;10.85;;;;;;;19.75;38.93;102179.06;5063591;28;20438;-88
2022/03/16 11:20:19;;;;;;;15.30;11.57;;;;;;;19.24;39.12;102183.69;5062129;28;20020;-88
2022/03/16 11:26:03;;;;;;;13.93;8.93;;;;;;;18.43;40.97;102188.00;5064821;28;20407;-90
2022/03/16 11:28:53;;;;;;;14.98;9.93;;;;;;;17.91;42.32;102188.84;5060379;28;20040;-88
2022/03/16 11:31:29;;;;;;;13.52;9.35;;;;;;;17.56;43.49;102196.72;5061921;28;20158;-89
2022/03/16 11:33:58;;;;;;;12.35;9.18;;;;;;;18.06;42.92;102190.75;5062892;28;20512;-90
2022/03/16 11:36:32;;;;;;;12.43;8.75;;;;;;;18.25;42.77;102190.69;5062456;28;20031;-89
2022/03/16 11:39:03;;;;;;;13.82;9.25;;;;;;;18.38;41.62;102188.25;5065722;28;21596;-89
2022/03/16 11:41:32;;;;;;;13.57;8.15;;;;;;;18.41;41.51;102185.38;5085246;28;20531;-89
2022/03/16 11:44:25;;;;;;;11.93;9.23;;;;;;;17.80;43.29;102183.13;5083662;28;20032;-90
2022/03/16 11:46:52;;;;;;;13.02;8.68;;;;;;;17.82;42.46;102195.50;5083869;28;20059;-89
2022/03/16 11:49:29;;;;;;;12.30;8.82;;;;;;;17.88;42.52;102188.97;5082270;28;20032;-88